Jackson Belden, Ohio
Current Conditions -  °F | °C
As of 7:51 PM on Saturday 22 Nov 2014 (Local Time) from KCAK Reporting Station
Overcast Overcast  
Wind Chill: 37°   Ceiling: 4900
Heat Index: 42°   Visibility: 10mi
Dew Point: 33°   Wind: 9mph
Humidity: 70%   Direction: 190°S
Pressure: 30.07"   Gusts: NA
Location:  40.8509°N, 81.4472°W
Report Text: KCAK 230051Z 19008KT 10SM OVC049 06/01 A3007 RMK AO2 RAB00E51 SLP194 P0000 T00560006 $
Loading
Personal Weather Stations






























Interactive Weather Map New forecast layout! Learn more

10-Day Weather Forecast

Advertisements
Track Severe Weather on mobile